createdAt,value
2023-01-08T00:02:00.906Z,100847.42
2023-01-08T00:07:06.904Z,100839.84
2023-01-08T00:12:12.643Z,100835.19
2023-01-08T00:17:18.748Z,100828.80
2023-01-08T00:22:24.739Z,100830.50
2023-01-08T00:27:30.453Z,100833.92
2023-01-08T00:32:36.327Z,100835.11
2023-01-08T00:37:42.318Z,100836.98
2023-01-08T00:42:48.439Z,100829.94
2023-01-08T00:47:54.282Z,100825.41
2023-01-08T00:53:00.932Z,100829.88
2023-01-08T00:58:06.746Z,100828.30
2023-01-08T01:03:12.927Z,100827.23
2023-01-08T01:08:18.832Z,100813.27
2023-01-08T01:13:24.939Z,100815.10
2023-01-08T01:18:31.222Z,100814.21
2023-01-08T01:23:37.098Z,100811.61
2023-01-08T01:28:43.049Z,100807.61
2023-01-08T01:33:48.808Z,100803.50
2023-01-08T01:38:56.442Z,100801.98
2023-01-08T01:44:42.347Z,100798.16
2023-01-08T01:49:56.402Z,100798.81
2023-01-08T01:55:03.292Z,100792.09
2023-01-08T02:00:11.251Z,100781.59
2023-01-08T02:05:23.146Z,100773.31
2023-01-08T02:10:39.311Z,100764.05
2023-01-08T02:15:55.775Z,100757.70
2023-01-08T02:21:07.664Z,100754.08
2023-01-08T02:26:26.559Z,100747.39
2023-01-08T02:31:35.589Z,100743.77
2023-01-08T02:36:43.689Z,100743.77
2023-01-08T02:42:01.932Z,100746.67
2023-01-08T02:47:12.163Z,100740.77
2023-01-08T02:52:19.748Z,100747.38
2023-01-08T02:57:26.806Z,100744.69
2023-01-08T03:02:36.140Z,100739.37
2023-01-08T03:07:42.144Z,100732.68
2023-01-08T03:12:55.956Z,100728.42
2023-01-08T03:18:07.577Z,100726.55
2023-01-08T03:23:16.257Z,100730.21
2023-01-08T03:28:30.206Z,100722.89
2023-01-08T03:33:38.120Z,100716.09
2023-01-08T03:38:50.933Z,100709.83
2023-01-08T03:43:57.473Z,100708.11
2023-01-08T03:49:05.318Z,100712.31
2023-01-08T03:54:14.745Z,100714.42
2023-01-08T03:59:20.407Z,100715.50
2023-01-08T04:04:26.458Z,100710.05
2023-01-08T04:09:32.312Z,100714.17
2023-01-08T04:14:37.934Z,100718.02
2023-01-08T04:19:43.785Z,100719.43
2023-01-08T04:24:49.495Z,100718.23
2023-01-08T04:29:55.353Z,100709.66
2023-01-08T04:35:01.280Z,100705.20
2023-01-08T04:40:09.359Z,100700.70
2023-01-08T04:45:15.298Z,100694.17
2023-01-08T04:50:21.444Z,100691.08
2023-01-08T04:55:27.502Z,100692.29
2023-01-08T05:00:33.519Z,100697.66
2023-01-08T05:05:39.367Z,100695.44
2023-01-08T05:10:45.186Z,100696.81
2023-01-08T05:15:51.198Z,100700.42
2023-01-08T05:20:59.605Z,100694.23
2023-01-08T05:26:06.820Z,100691.16
2023-01-08T05:31:13.022Z,100685.86
2023-01-08T05:36:19.592Z,100679.52
2023-01-08T05:50:09.193Z,100680.27
2023-01-08T05:55:15.223Z,100675.29
2023-01-08T06:00:21.892Z,100680.23
2023-01-08T06:05:29.357Z,100669.73
2023-01-08T06:10:35.322Z,100676.95
2023-01-08T06:15:41.597Z,100669.37
2023-01-08T06:20:47.517Z,100666.95
2023-01-08T06:25:56.464Z,100667.84
2023-01-08T06:31:03.753Z,100663.56
2023-01-08T06:36:11.156Z,100662.05
2023-01-08T06:41:18.047Z,100655.73
2023-01-08T06:46:24.186Z,100650.60
2023-01-08T06:51:31.012Z,100648.02
2023-01-08T06:56:52.373Z,100644.91
2023-01-08T07:01:59.657Z,100635.96
2023-01-08T07:07:05.913Z,100627.38
2023-01-08T07:12:14.894Z,100630.96
2023-01-08T07:17:21.895Z,100631.14
2023-01-08T07:22:29.609Z,100637.18
2023-01-08T07:27:36.555Z,100626.33
2023-01-08T07:32:42.932Z,100625.95
2023-01-08T07:37:49.811Z,100615.83
2023-01-08T07:43:03.359Z,100607.78
2023-01-08T07:48:16.576Z,100596.98
2023-01-08T07:53:23.343Z,100595.62
2023-01-08T07:58:30.148Z,100588.80
2023-01-08T08:03:36.118Z,100584.69
2023-01-08T08:08:43.110Z,100584.36
2023-01-08T08:13:53.058Z,100582.13
2023-01-08T08:19:01.033Z,100579.05
2023-01-08T08:24:08.735Z,100586.60
2023-01-08T08:29:15.489Z,100593.52
2023-01-08T08:34:22.679Z,100587.20
2023-01-08T08:39:34.577Z,100577.59
2023-01-08T08:44:42.947Z,100573.69
2023-01-08T08:49:50.860Z,100563.61
2023-01-08T08:54:58.068Z,100549.54
2023-01-08T09:00:05.500Z,100544.40
2023-01-08T09:05:12.466Z,100543.77
2023-01-08T09:10:18.930Z,100536.59
2023-01-08T09:15:24.748Z,100544.19
2023-01-08T09:20:32.056Z,100544.02
2023-01-08T09:25:38.565Z,100543.53
2023-01-08T09:30:45.066Z,100543.89
2023-01-08T09:35:51.325Z,100536.31
2023-01-08T09:41:03.866Z,100533.22
2023-01-08T09:46:12.089Z,100534.60
2023-01-08T09:51:20.776Z,100527.04
2023-01-08T09:56:28.375Z,100511.09
2023-01-08T10:01:38.431Z,100499.80
2023-01-08T10:06:51.148Z,100500.17
2023-01-08T10:12:00.616Z,100498.98
2023-01-08T10:17:20.929Z,100495.04
2023-01-08T10:22:34.124Z,100490.21
2023-01-08T10:27:48.702Z,100484.70
2023-01-08T10:32:56.481Z,100476.27
2023-01-08T10:38:03.327Z,100470.23
2023-01-08T10:43:14.442Z,100461.63
2023-01-08T10:48:19.452Z,100455.60
2023-01-08T10:53:30.921Z,100438.75
2023-01-08T10:58:45.055Z,100423.42
2023-01-08T11:03:55.849Z,100422.73
2023-01-08T11:09:04.767Z,100420.00
2023-01-08T11:14:21.896Z,100413.96
2023-01-08T11:19:34.043Z,100408.80
2023-01-08T11:24:42.409Z,100408.63
2023-01-08T11:29:57.728Z,100401.23
2023-01-08T11:35:10.267Z,100400.04
2023-01-08T11:40:28.286Z,100399.35
2023-01-08T11:45:50.107Z,100397.29
2023-01-08T11:51:19.040Z,100387.66
2023-01-08T11:56:38.839Z,100390.23
2023-01-08T12:01:55.628Z,100381.45
2023-01-08T12:07:11.628Z,100378.38
2023-01-08T12:12:33.591Z,100375.27
2023-01-08T12:18:04.604Z,100376.30
2023-01-08T12:23:33.192Z,100376.13
2023-01-08T12:29:09.446Z,100376.48
2023-01-08T12:34:20.782Z,100358.92
2023-01-08T12:39:33.886Z,100356.52
2023-01-08T12:44:41.111Z,100360.30
2023-01-08T12:50:00.287Z,100363.06
2023-01-08T12:55:17.504Z,100365.46
2023-01-08T13:00:34.249Z,100372.33
2023-01-08T13:05:42.203Z,100362.52
2023-01-08T13:10:54.381Z,100353.73
2023-01-08T13:16:20.044Z,100357.17
2023-01-08T13:21:42.822Z,100362.48
2023-01-08T13:26:49.481Z,100360.92
2023-01-08T13:31:57.463Z,100354.39
2023-01-08T13:37:03.641Z,100342.18
2023-01-08T13:42:25.072Z,100336.87
2023-01-08T13:47:35.673Z,100348.02
2023-01-08T13:52:46.121Z,100346.10
2023-01-08T13:57:58.162Z,100341.80
2023-01-08T14:03:06.051Z,100342.11
2023-01-08T14:08:24.115Z,100345.02
2023-01-08T14:13:34.372Z,100346.20
2023-01-08T14:18:43.277Z,100347.58
2023-01-08T14:23:54.098Z,100349.27
2023-01-08T14:29:02.401Z,100337.77
2023-01-08T14:34:10.636Z,100339.64
2023-01-08T14:39:24.944Z,100336.34
2023-01-08T14:44:38.056Z,100326.17
2023-01-08T14:49:52.615Z,100318.44
2023-01-08T14:55:03.230Z,100313.81
2023-01-08T15:00:19.304Z,100317.90
2023-01-08T15:05:29.789Z,100316.16
2023-01-08T15:10:39.116Z,100306.36
2023-01-08T15:15:56.433Z,100293.31
2023-01-08T15:21:02.811Z,100287.48
2023-01-08T15:26:13.847Z,100290.57
2023-01-08T15:31:27.853Z,100290.75
2023-01-08T15:36:33.789Z,100278.05
2023-01-08T15:41:59.022Z,100282.00
2023-01-08T15:47:08.367Z,100282.51
2023-01-08T15:52:14.568Z,100283.19
2023-01-08T15:57:23.097Z,100283.71
2023-01-08T16:02:28.987Z,100271.18
2023-01-08T16:07:34.821Z,100266.55
2023-01-08T16:12:40.613Z,100258.69
2023-01-08T16:17:46.891Z,100251.46
2023-01-08T16:22:57.844Z,100234.10
2023-01-08T16:28:05.291Z,100230.66
2023-01-08T16:33:11.440Z,100231.88
2023-01-08T16:38:19.555Z,100232.38
2023-01-08T16:43:25.976Z,100220.55
2023-01-08T16:48:31.806Z,100217.64
2023-01-08T16:53:37.967Z,100200.81
2023-01-08T16:58:43.781Z,100212.64
2023-01-08T17:03:49.776Z,100234.45
2023-01-08T17:08:58.179Z,100229.31
2023-01-08T17:14:04.085Z,100223.83
2023-01-08T17:19:10.201Z,100223.48
2023-01-08T17:24:16.281Z,100216.12
2023-01-08T17:29:23.406Z,100211.98
2023-01-08T17:34:29.157Z,100202.20
2023-01-08T17:39:34.936Z,100190.37
2023-01-08T17:44:40.759Z,100192.09
2023-01-08T17:49:48.703Z,100189.69
2023-01-08T17:54:54.929Z,100178.86
2023-01-08T18:00:00.821Z,100174.39
2023-01-08T18:05:09.585Z,100173.39
2023-01-08T18:10:15.935Z,100169.97
2023-01-08T18:15:21.965Z,100154.70
2023-01-08T18:20:27.962Z,100139.59
2023-01-08T18:25:33.904Z,100134.09
2023-01-08T18:30:39.584Z,100138.55
2023-01-08T18:35:45.280Z,100143.19
2023-01-08T18:40:53.388Z,100137.36
2023-01-08T18:46:01.798Z,100135.30
2023-01-08T18:51:08.087Z,100139.59
2023-01-08T18:56:17.971Z,100147.84
2023-01-08T19:01:24.411Z,100144.93
2023-01-08T19:06:30.659Z,100150.08
2023-01-08T19:11:36.602Z,100148.36
2023-01-08T19:16:48.369Z,100147.16
2023-01-08T19:21:54.541Z,100139.96
2023-01-08T19:27:00.443Z,100137.72
2023-01-08T19:32:07.625Z,100135.14
2023-01-08T19:37:14.875Z,100128.28
2023-01-08T19:42:41.270Z,100129.31
2023-01-08T19:47:47.480Z,100142.52
2023-01-08T19:52:53.321Z,100144.59
2023-01-08T19:58:00.127Z,100143.23
2023-01-08T20:03:06.560Z,100151.13
2023-01-08T20:08:12.680Z,100151.12
2023-01-08T20:13:19.452Z,100144.27
2023-01-08T20:18:25.118Z,100144.24
2023-01-08T20:23:31.093Z,100140.29
2023-01-08T20:28:39.157Z,100135.14
2023-01-08T20:33:46.438Z,100115.91
2023-01-08T20:38:54.907Z,100104.06
2023-01-08T20:44:03.675Z,100084.99
2023-01-08T20:49:13.303Z,100067.65
2023-01-08T20:54:19.160Z,100055.81
2023-01-08T20:59:25.576Z,100038.46
2023-01-08T21:04:31.525Z,100014.93
2023-01-08T21:09:39.569Z,99999.14
2023-01-08T21:14:46.145Z,99994.16
2023-01-08T21:19:52.231Z,99992.61
2023-01-08T21:24:57.947Z,99989.01
2023-01-08T21:30:04.332Z,99977.67
2023-01-08T21:35:10.636Z,99970.98
2023-01-08T21:40:17.043Z,99957.40
2023-01-08T21:45:26.036Z,99958.59
2023-01-08T21:50:32.073Z,99950.50
2023-01-08T21:55:37.877Z,99946.71
2023-01-08T22:03:30.862Z,99942.56
2023-01-08T22:08:36.889Z,99942.05
2023-01-08T22:13:42.613Z,99941.36
2023-01-08T22:18:48.399Z,99931.89
2023-01-08T22:23:55.133Z,99925.89
2023-01-08T22:29:04.020Z,99922.63
2023-01-08T22:34:13.264Z,99920.55
2023-01-08T22:39:19.350Z,99918.83
2023-01-08T22:44:25.225Z,99918.33
2023-01-08T22:49:31.203Z,99911.59
2023-01-08T22:54:39.035Z,99916.06
2023-01-08T22:59:44.918Z,99904.38
2023-01-08T23:04:52.876Z,99892.02
2023-01-08T23:09:58.572Z,99890.63
2023-01-08T23:15:06.098Z,99876.02
2023-01-08T23:20:15.010Z,99852.66
2023-01-08T23:25:21.164Z,99835.84
2023-01-08T23:30:31.449Z,99828.46
2023-01-08T23:35:37.211Z,99824.70
2023-01-08T23:40:45.263Z,99813.35
2023-01-08T23:45:51.361Z,99819.71
2023-01-08T23:50:57.189Z,99818.52
2023-01-08T23:56:03.085Z,99805.78
